createdAt,value
2018-10-03T00:00:07.873Z,99.50
2018-10-03T00:02:36.442Z,99.60
2018-10-03T00:05:05.071Z,99.60
2018-10-03T00:07:33.695Z,99.60
2018-10-03T00:10:02.206Z,99.70
2018-10-03T00:12:30.667Z,99.60
2018-10-03T00:14:59.145Z,99.70
2018-10-03T00:17:27.691Z,99.80
2018-10-03T00:19:56.207Z,99.90
2018-10-03T00:22:24.682Z,99.80
2018-10-03T00:24:53.161Z,99.90
2018-10-03T00:27:21.610Z,99.90
2018-10-03T00:29:50.114Z,99.90
2018-10-03T00:32:18.618Z,99.90
2018-10-03T00:34:47.107Z,99.90
2018-10-03T00:37:15.565Z,99.90
2018-10-03T00:39:44.203Z,99.90
2018-10-03T00:42:12.659Z,99.90
2018-10-03T00:44:41.178Z,99.90
2018-10-03T00:47:09.636Z,99.90
2018-10-03T00:49:38.107Z,99.90
2018-10-03T00:52:06.545Z,99.90
2018-10-03T00:54:35.060Z,99.90
2018-10-03T00:57:03.550Z,99.90
2018-10-03T00:59:32.070Z,99.90
2018-10-03T01:02:00.612Z,99.90
2018-10-03T01:04:29.125Z,99.90
2018-10-03T01:06:57.610Z,99.90
2018-10-03T01:09:26.121Z,99.90
2018-10-03T01:11:54.609Z,99.90
2018-10-03T01:14:23.124Z,99.90
2018-10-03T01:16:51.617Z,99.90
2018-10-03T01:19:20.341Z,99.90
2018-10-03T01:21:48.778Z,99.90
2018-10-03T01:24:17.318Z,99.90
2018-10-03T01:26:45.803Z,99.90
2018-10-03T01:29:14.333Z,99.90
2018-10-03T01:31:42.797Z,99.90
2018-10-03T01:34:11.258Z,99.90
2018-10-03T01:36:39.756Z,99.90
2018-10-03T01:39:09.452Z,99.90
2018-10-03T01:41:38.404Z,99.90
2018-10-03T01:44:06.936Z,99.90
2018-10-03T01:46:35.382Z,99.90
2018-10-03T01:49:03.878Z,99.90
2018-10-03T01:51:32.357Z,99.90
2018-10-03T01:54:00.883Z,99.90
2018-10-03T01:56:29.625Z,99.90
2018-10-03T01:58:58.104Z,99.90
2018-10-03T02:01:26.651Z,99.90
2018-10-03T02:03:55.105Z,99.90
2018-10-03T02:06:23.536Z,99.90
2018-10-03T02:08:52.022Z,99.90
2018-10-03T02:11:20.508Z,99.90
2018-10-03T02:13:49.026Z,99.90
2018-10-03T02:16:17.489Z,99.90
2018-10-03T02:18:46.052Z,99.90
2018-10-03T02:21:14.499Z,99.90
2018-10-03T02:23:43.079Z,99.90
2018-10-03T02:26:11.530Z,99.90
2018-10-03T02:28:40.014Z,99.90
2018-10-03T02:31:08.549Z,99.90
2018-10-03T02:33:37.019Z,99.90
2018-10-03T02:36:05.645Z,99.90
2018-10-03T02:38:34.170Z,99.90
2018-10-03T02:41:02.698Z,99.90
2018-10-03T02:43:31.699Z,99.90
2018-10-03T02:46:00.170Z,99.90
2018-10-03T02:48:28.626Z,99.90
2018-10-03T02:50:57.151Z,99.90
2018-10-03T02:53:25.627Z,99.90
2018-10-03T02:55:54.296Z,99.90
2018-10-03T02:58:22.747Z,99.90
2018-10-03T03:00:51.354Z,99.90
2018-10-03T03:03:19.791Z,99.90
2018-10-03T03:05:48.278Z,99.90
2018-10-03T03:08:16.748Z,99.90
2018-10-03T03:10:45.256Z,99.90
2018-10-03T03:13:13.733Z,99.90
2018-10-03T03:15:42.309Z,99.90
2018-10-03T03:18:10.879Z,99.90
2018-10-03T03:20:39.371Z,99.90
2018-10-03T03:23:07.813Z,99.90
2018-10-03T03:25:36.323Z,99.90
2018-10-03T03:28:04.848Z,99.90
2018-10-03T03:30:33.453Z,99.90
2018-10-03T03:33:01.889Z,99.90
2018-10-03T03:35:30.388Z,99.90
2018-10-03T03:37:58.851Z,99.90
2018-10-03T03:40:27.348Z,99.90
2018-10-03T03:42:55.791Z,99.90
2018-10-03T03:45:24.318Z,99.90
2018-10-03T03:47:52.790Z,99.90
2018-10-03T03:50:21.287Z,99.90
2018-10-03T03:52:49.819Z,99.90
2018-10-03T03:55:18.282Z,99.90
2018-10-03T03:57:46.807Z,99.90
2018-10-03T04:00:15.292Z,99.90
2018-10-03T04:02:43.754Z,99.90
2018-10-03T04:05:12.240Z,99.90
2018-10-03T04:07:40.899Z,99.90
2018-10-03T04:10:09.335Z,99.90
2018-10-03T04:12:37.800Z,99.90
2018-10-03T04:15:06.338Z,99.90
2018-10-03T04:17:34.820Z,99.90
2018-10-03T04:20:03.326Z,99.90
2018-10-03T04:22:31.783Z,99.90
2018-10-03T04:25:00.246Z,99.90
2018-10-03T04:27:28.697Z,99.90
2018-10-03T04:29:57.245Z,99.90
2018-10-03T04:32:25.723Z,99.90
2018-10-03T04:34:54.210Z,99.90
2018-10-03T04:37:22.631Z,99.90
2018-10-03T04:39:51.110Z,99.90
2018-10-03T04:42:19.620Z,99.90
2018-10-03T04:44:48.111Z,99.90
2018-10-03T04:47:16.577Z,99.90
2018-10-03T04:49:45.045Z,99.90
2018-10-03T04:52:13.477Z,99.90
2018-10-03T04:54:41.949Z,99.90
2018-10-03T04:57:10.461Z,99.90
2018-10-03T04:59:39.121Z,99.90
2018-10-03T05:02:07.591Z,99.90
2018-10-03T05:04:36.074Z,99.90
2018-10-03T05:07:04.544Z,99.90
2018-10-03T05:09:33.038Z,99.90
2018-10-03T05:12:01.541Z,99.90
2018-10-03T05:14:30.016Z,99.90
2018-10-03T05:16:58.759Z,99.90
2018-10-03T05:19:27.260Z,99.90
2018-10-03T05:21:55.702Z,99.90
2018-10-03T05:24:24.158Z,99.90
2018-10-03T05:26:52.814Z,99.90
2018-10-03T05:29:21.643Z,99.90
2018-10-03T05:31:50.146Z,99.90
2018-10-03T05:34:18.761Z,99.90
2018-10-03T05:36:47.244Z,99.90
2018-10-03T05:39:15.765Z,99.90
2018-10-03T05:41:44.251Z,99.90
2018-10-03T05:44:12.858Z,99.90
2018-10-03T05:46:41.819Z,99.90
2018-10-03T05:49:16.672Z,99.90
2018-10-03T05:51:45.142Z,99.90
2018-10-03T05:54:13.677Z,99.90
2018-10-03T05:56:42.219Z,99.90
2018-10-03T05:59:10.685Z,99.90
2018-10-03T06:01:39.160Z,99.90
2018-10-03T06:04:07.643Z,99.90
2018-10-03T06:06:36.091Z,99.90
2018-10-03T06:09:07.315Z,99.90
2018-10-03T06:11:35.761Z,99.90
2018-10-03T06:14:04.242Z,99.90
2018-10-03T06:16:32.710Z,99.90
2018-10-03T06:19:01.187Z,99.90
2018-10-03T06:21:29.639Z,99.90
2018-10-03T06:23:58.160Z,99.90
2018-10-03T06:26:26.784Z,99.90
2018-10-03T06:28:55.364Z,99.90
2018-10-03T06:31:23.829Z,99.90
2018-10-03T06:33:52.311Z,99.90
2018-10-03T06:36:20.758Z,99.90
2018-10-03T06:38:49.229Z,99.90
2018-10-03T06:41:17.687Z,99.90
2018-10-03T06:43:46.161Z,99.90
2018-10-03T06:46:14.618Z,99.90
2018-10-03T06:48:43.084Z,99.90
2018-10-03T06:51:11.546Z,99.90
2018-10-03T06:53:40.068Z,99.90
2018-10-03T06:56:08.603Z,99.90
2018-10-03T06:58:37.097Z,99.90
2018-10-03T07:01:05.583Z,99.90
2018-10-03T07:03:34.064Z,99.90
2018-10-03T07:06:02.566Z,99.90
2018-10-03T07:08:31.098Z,99.90
2018-10-03T07:10:59.546Z,99.90
2018-10-03T07:13:28.026Z,99.90
2018-10-03T07:15:56.466Z,99.90
2018-10-03T07:18:25.071Z,99.90
2018-10-03T07:20:53.559Z,99.90
2018-10-03T07:23:22.070Z,99.90
2018-10-03T07:25:50.534Z,99.90
2018-10-03T07:28:19.146Z,99.90
2018-10-03T07:30:47.589Z,99.90
2018-10-03T07:33:16.043Z,99.90
2018-10-03T07:35:44.503Z,99.90
2018-10-03T07:38:13.000Z,99.90
2018-10-03T07:40:41.525Z,99.90
2018-10-03T07:43:10.130Z,99.90
2018-10-03T07:45:38.587Z,99.90
2018-10-03T07:48:07.191Z,99.90
2018-10-03T07:50:35.577Z,99.90
2018-10-03T07:53:04.202Z,99.90
2018-10-03T07:55:32.675Z,99.90
2018-10-03T07:58:01.146Z,99.90
2018-10-03T08:00:30.775Z,99.90
2018-10-03T08:02:59.835Z,99.90
2018-10-03T08:05:29.071Z,99.90
2018-10-03T08:07:58.722Z,99.90
2018-10-03T08:10:27.201Z,99.90
2018-10-03T08:12:56.214Z,99.90
2018-10-03T08:15:24.695Z,99.90
2018-10-03T08:17:53.126Z,99.90
2018-10-03T08:20:21.783Z,99.90
2018-10-03T08:22:50.240Z,99.90
2018-10-03T08:25:18.769Z,99.90
2018-10-03T08:27:47.357Z,99.90
2018-10-03T08:30:15.815Z,99.90
2018-10-03T08:32:44.547Z,99.90
2018-10-03T08:35:12.853Z,99.90
2018-10-03T08:37:41.337Z,99.90
2018-10-03T08:40:09.541Z,99.90
2018-10-03T08:42:38.070Z,99.90
2018-10-03T08:45:06.702Z,99.90
2018-10-03T08:47:35.201Z,99.90
2018-10-03T08:50:03.695Z,99.90
2018-10-03T08:52:32.184Z,99.90
2018-10-03T08:55:00.635Z,99.90
2018-10-03T08:57:29.106Z,99.90
2018-10-03T08:59:57.545Z,99.90
2018-10-03T09:02:26.009Z,99.90
2018-10-03T09:04:54.691Z,99.90
2018-10-03T09:07:23.192Z,99.90
2018-10-03T09:09:51.693Z,99.90
2018-10-03T09:12:20.169Z,99.90
2018-10-03T09:14:48.630Z,99.90
2018-10-03T09:17:17.135Z,99.90
2018-10-03T09:19:45.592Z,99.90
2018-10-03T09:22:14.071Z,99.90
2018-10-03T09:24:42.521Z,99.90
2018-10-03T09:27:11.025Z,99.90
2018-10-03T09:29:39.458Z,99.90
2018-10-03T09:32:07.978Z,99.90
2018-10-03T09:34:36.411Z,99.90
2018-10-03T09:37:04.889Z,99.90
2018-10-03T09:39:33.416Z,99.90
2018-10-03T09:42:01.858Z,99.90
2018-10-03T09:44:30.344Z,99.90
2018-10-03T09:46:59.211Z,99.90
2018-10-03T09:49:27.656Z,99.90
2018-10-03T09:51:56.110Z,99.90
2018-10-03T09:54:24.591Z,99.90
2018-10-03T09:56:53.085Z,99.90
2018-10-03T09:59:21.578Z,99.90
2018-10-03T10:01:50.060Z,99.90
2018-10-03T10:04:18.551Z,99.90
2018-10-03T10:06:47.034Z,99.90
2018-10-03T10:09:15.497Z,99.90
2018-10-03T10:11:44.122Z,99.90
2018-10-03T10:14:12.417Z,99.90
2018-10-03T10:16:40.942Z,99.90
2018-10-03T10:19:09.410Z,99.90
2018-10-03T10:21:37.866Z,99.90
2018-10-03T10:24:06.367Z,99.90
2018-10-03T10:26:34.828Z,99.80
2018-10-03T10:29:03.325Z,99.80
2018-10-03T10:31:31.825Z,99.90
2018-10-03T10:34:00.346Z,98.80
2018-10-03T10:36:28.818Z,98.80
2018-10-03T10:38:57.302Z,98.60
2018-10-03T10:41:25.917Z,98.20
2018-10-03T10:43:54.304Z,98.40
2018-10-03T10:46:22.810Z,97.60
2018-10-03T10:48:51.345Z,96.50
2018-10-03T10:51:19.803Z,96.80
2018-10-03T10:53:48.278Z,96.10
2018-10-03T10:56:16.743Z,94.80
2018-10-03T10:58:45.229Z,94.10
2018-10-03T11:01:13.683Z,93.80
2018-10-03T11:03:42.251Z,94.00
2018-10-03T11:06:10.766Z,94.00
2018-10-03T11:08:39.218Z,93.50
2018-10-03T11:11:07.678Z,93.20
2018-10-03T11:13:36.204Z,93.00
2018-10-03T11:16:04.646Z,93.10
2018-10-03T11:18:33.171Z,93.30
2018-10-03T11:21:01.636Z,93.10
2018-10-03T11:23:30.175Z,93.10
2018-10-03T11:25:58.683Z,92.70
2018-10-03T11:28:27.248Z,92.20
2018-10-03T11:30:55.719Z,92.70
2018-10-03T11:33:24.194Z,92.40
2018-10-03T11:35:52.640Z,92.00
2018-10-03T11:38:21.167Z,92.40
2018-10-03T11:40:49.593Z,91.70
2018-10-03T11:43:18.185Z,91.00
2018-10-03T11:45:46.620Z,90.60
2018-10-03T11:48:15.142Z,90.60
2018-10-03T11:50:43.659Z,91.00
2018-10-03T11:53:12.128Z,90.60
2018-10-03T11:55:40.599Z,90.20
2018-10-03T11:58:09.091Z,90.40
2018-10-03T12:00:37.623Z,89.80
2018-10-03T12:03:06.104Z,89.10
2018-10-03T12:05:34.578Z,87.30
2018-10-03T12:08:03.083Z,84.70
2018-10-03T12:10:31.554Z,84.30
2018-10-03T12:13:00.122Z,82.30
2018-10-03T12:15:28.572Z,82.40
2018-10-03T12:17:57.062Z,83.50
2018-10-03T12:20:25.510Z,84.00
2018-10-03T12:22:53.986Z,83.80
2018-10-03T12:25:23.266Z,85.70
2018-10-03T12:27:51.847Z,86.40
2018-10-03T12:30:20.329Z,85.80
2018-10-03T12:32:48.827Z,87.50
2018-10-03T12:35:21.503Z,87.60
2018-10-03T12:37:49.994Z,86.60
2018-10-03T12:40:18.490Z,83.40
2018-10-03T12:42:47.129Z,82.60
2018-10-03T12:45:15.717Z,81.20
2018-10-03T12:47:44.154Z,82.00
2018-10-03T12:50:12.692Z,82.30
2018-10-03T12:52:41.226Z,81.00
2018-10-03T12:55:09.703Z,80.90
2018-10-03T12:57:38.316Z,80.00
2018-10-03T13:00:06.803Z,80.80
2018-10-03T13:02:35.321Z,79.30
2018-10-03T13:05:03.860Z,79.90
2018-10-03T13:07:32.368Z,79.80
2018-10-03T13:10:00.929Z,78.40
2018-10-03T13:12:29.398Z,78.30
2018-10-03T13:14:57.859Z,77.00
2018-10-03T13:17:26.468Z,74.60
2018-10-03T13:19:54.933Z,76.00
2018-10-03T13:22:23.506Z,74.20
2018-10-03T13:24:52.287Z,67.50
2018-10-03T13:27:20.886Z,68.80
2018-10-03T13:29:49.368Z,67.40
2018-10-03T13:32:17.876Z,60.30
2018-10-03T13:34:46.353Z,58.30
2018-10-03T13:37:14.850Z,57.00
2018-10-03T13:39:43.354Z,59.80
2018-10-03T13:42:11.869Z,63.20
2018-10-03T13:44:40.337Z,66.40
2018-10-03T13:47:08.845Z,67.20
2018-10-03T13:49:37.297Z,69.00
2018-10-03T13:52:05.856Z,69.40
2018-10-03T13:54:34.350Z,71.20
2018-10-03T13:57:03.221Z,67.60
2018-10-03T13:59:31.735Z,66.10
2018-10-03T14:02:00.235Z,64.40
2018-10-03T14:04:28.679Z,65.10
2018-10-03T14:06:57.224Z,65.30
2018-10-03T14:09:25.698Z,62.30
2018-10-03T14:11:54.187Z,61.60
2018-10-03T14:14:22.686Z,64.30
2018-10-03T14:16:51.191Z,64.30
2018-10-03T14:19:19.659Z,64.80
2018-10-03T14:21:48.158Z,62.30
2018-10-03T14:24:16.626Z,60.60
2018-10-03T14:26:45.079Z,59.80
2018-10-03T14:29:13.639Z,59.60
2018-10-03T14:31:42.410Z,58.90
2018-10-03T14:34:10.901Z,60.50
2018-10-03T14:36:39.417Z,60.90
2018-10-03T14:39:08.785Z,61.10
2018-10-03T14:41:37.243Z,60.30
2018-10-03T14:44:05.770Z,61.30
2018-10-03T14:46:34.238Z,61.80
2018-10-03T14:49:02.739Z,62.60
2018-10-03T14:51:31.198Z,63.70
2018-10-03T14:53:59.670Z,63.60
2018-10-03T14:56:28.118Z,61.80
2018-10-03T14:58:56.599Z,60.60
2018-10-03T15:01:25.092Z,61.70
2018-10-03T15:03:53.671Z,61.30
2018-10-03T15:06:22.123Z,59.70
2018-10-03T15:08:50.613Z,61.70
2018-10-03T15:11:19.081Z,59.70
2018-10-03T15:13:47.534Z,60.80
2018-10-03T15:16:15.998Z,60.90
2018-10-03T15:18:44.471Z,60.80
2018-10-03T15:21:12.914Z,62.50
2018-10-03T15:23:41.434Z,63.20
2018-10-03T15:26:09.858Z,62.70
2018-10-03T15:28:38.380Z,65.00
2018-10-03T15:31:06.926Z,67.00
2018-10-03T15:33:35.390Z,68.30
2018-10-03T15:36:03.841Z,68.00
2018-10-03T15:38:32.335Z,67.90
2018-10-03T15:41:00.776Z,68.80
2018-10-03T15:43:29.229Z,70.60
2018-10-03T15:45:57.691Z,68.60
2018-10-03T15:48:26.184Z,69.70
2018-10-03T15:50:54.646Z,70.90
2018-10-03T15:53:23.159Z,71.00
2018-10-03T15:55:51.631Z,72.90
2018-10-03T15:58:20.157Z,74.00
2018-10-03T16:00:48.632Z,74.40
2018-10-03T16:03:17.396Z,75.00
2018-10-03T16:05:45.879Z,76.00
2018-10-03T16:08:14.410Z,77.00
2018-10-03T16:10:42.883Z,77.60
2018-10-03T16:13:11.527Z,78.00
2018-10-03T16:15:39.958Z,79.00
2018-10-03T16:18:08.441Z,79.10
2018-10-03T16:20:37.002Z,79.70
2018-10-03T16:23:05.595Z,80.80
2018-10-03T16:25:34.035Z,81.40
2018-10-03T16:28:02.613Z,81.60
2018-10-03T16:30:31.094Z,82.20
2018-10-03T16:32:59.553Z,82.40
2018-10-03T16:35:27.989Z,82.80
2018-10-03T16:37:56.458Z,83.10
2018-10-03T16:40:24.966Z,83.40
2018-10-03T16:42:53.440Z,83.50
2018-10-03T16:45:21.886Z,83.70
2018-10-03T16:47:50.397Z,84.00
2018-10-03T16:50:18.838Z,84.40
2018-10-03T16:52:47.311Z,84.40
2018-10-03T16:55:15.746Z,84.60
2018-10-03T16:57:44.600Z,84.90
2018-10-03T17:00:13.738Z,85.00
2018-10-03T17:02:42.855Z,85.10
2018-10-03T17:05:11.339Z,85.10
2018-10-03T17:07:39.837Z,85.20
2018-10-03T17:10:08.348Z,85.40
2018-10-03T17:12:36.777Z,85.40
2018-10-03T17:15:05.305Z,85.50
2018-10-03T17:17:34.269Z,85.90
2018-10-03T17:20:02.873Z,86.30
2018-10-03T17:22:31.342Z,86.70
2018-10-03T17:24:59.821Z,86.80
2018-10-03T17:27:28.349Z,87.00
2018-10-03T17:29:56.763Z,87.40
2018-10-03T17:32:25.226Z,87.30
2018-10-03T17:34:53.650Z,87.40
2018-10-03T17:37:22.128Z,87.60
2018-10-03T17:39:50.568Z,87.60
2018-10-03T17:42:19.042Z,87.70
2018-10-03T17:44:47.492Z,87.80
2018-10-03T17:47:15.927Z,87.90
2018-10-03T17:49:44.397Z,88.20
2018-10-03T17:52:12.849Z,88.70
2018-10-03T17:54:41.327Z,89.00
2018-10-03T17:57:09.945Z,89.30
2018-10-03T17:59:38.394Z,89.70
2018-10-03T18:02:09.107Z,89.80
2018-10-03T18:04:37.639Z,89.90
2018-10-03T18:07:06.246Z,90.00
2018-10-03T18:09:34.692Z,90.00
2018-10-03T18:12:03.170Z,90.00
2018-10-03T18:14:31.599Z,90.60
2018-10-03T18:17:00.123Z,90.70
2018-10-03T18:19:28.587Z,90.70
2018-10-03T18:21:57.272Z,91.00
2018-10-03T18:24:25.671Z,91.30
2018-10-03T18:26:54.155Z,91.60
2018-10-03T18:29:22.651Z,91.90
2018-10-03T18:31:51.119Z,92.20
2018-10-03T18:34:19.550Z,92.40
2018-10-03T18:36:48.030Z,92.30
2018-10-03T18:39:16.589Z,92.40
2018-10-03T18:41:45.059Z,92.40
2018-10-03T18:44:13.494Z,92.30
2018-10-03T18:46:41.956Z,92.40
2018-10-03T18:49:10.383Z,92.50
2018-10-03T18:51:38.882Z,92.70
2018-10-03T18:54:07.367Z,93.00
2018-10-03T18:56:35.829Z,93.10
2018-10-03T18:59:04.320Z,93.00
2018-10-03T19:01:32.888Z,93.30
2018-10-03T19:04:01.369Z,93.40
2018-10-03T19:06:29.848Z,93.50
2018-10-03T19:08:58.269Z,93.90
2018-10-03T19:11:26.741Z,94.10
2018-10-03T19:13:55.195Z,94.60
2018-10-03T19:16:23.770Z,94.70
2018-10-03T19:18:52.198Z,95.30
2018-10-03T19:21:20.676Z,95.10
2018-10-03T19:23:49.122Z,95.20
2018-10-03T19:26:17.653Z,95.40
2018-10-03T19:28:46.100Z,95.60
2018-10-03T19:31:14.594Z,95.40
2018-10-03T19:33:43.037Z,95.40
2018-10-03T19:36:11.608Z,95.30
2018-10-03T19:38:40.088Z,95.20
2018-10-03T19:41:08.572Z,95.30
2018-10-03T19:43:37.035Z,95.30
2018-10-03T19:46:05.495Z,95.80
2018-10-03T19:48:34.082Z,96.00
2018-10-03T19:51:02.416Z,96.20
2018-10-03T19:53:33.016Z,96.40
2018-10-03T19:56:02.521Z,96.60
2018-10-03T19:58:31.104Z,96.70
2018-10-03T20:00:59.555Z,96.60
2018-10-03T20:03:28.054Z,96.80
2018-10-03T20:05:56.514Z,97.00
2018-10-03T20:08:25.026Z,97.00
2018-10-03T20:10:53.465Z,97.20
2018-10-03T20:13:22.400Z,97.30
2018-10-03T20:15:51.374Z,97.60
2018-10-03T20:18:20.265Z,97.70
2018-10-03T20:20:48.738Z,97.60
2018-10-03T20:23:17.182Z,97.70
2018-10-03T20:25:45.621Z,97.70
2018-10-03T20:28:14.116Z,97.70
2018-10-03T20:30:42.551Z,97.60
2018-10-03T20:33:11.057Z,97.40
2018-10-03T20:35:39.570Z,97.40
2018-10-03T20:38:08.036Z,97.60
2018-10-03T20:40:36.652Z,97.70
2018-10-03T20:43:05.152Z,97.80
2018-10-03T20:45:33.591Z,97.70
2018-10-03T20:48:02.071Z,97.90
2018-10-03T20:50:30.534Z,98.00
2018-10-03T20:52:59.047Z,98.10
2018-10-03T20:55:27.469Z,98.10
2018-10-03T20:57:55.882Z,98.30
2018-10-03T21:00:24.416Z,98.30
2018-10-03T21:02:52.819Z,98.40
2018-10-03T21:05:21.310Z,98.30
2018-10-03T21:07:49.737Z,98.40
2018-10-03T21:10:18.195Z,98.60
2018-10-03T21:12:46.678Z,98.80
2018-10-03T21:15:15.136Z,98.90
2018-10-03T21:17:43.597Z,99.10
2018-10-03T21:20:12.058Z,99.10
2018-10-03T21:22:40.485Z,99.00
2018-10-03T21:25:08.992Z,99.00
2018-10-03T21:27:37.516Z,99.10
2018-10-03T21:30:06.406Z,99.00
2018-10-03T21:32:35.120Z,99.10
2018-10-03T21:35:03.592Z,99.50
2018-10-03T21:37:32.053Z,99.70
2018-10-03T21:40:00.510Z,99.90
2018-10-03T21:42:28.943Z,99.90
2018-10-03T21:44:57.402Z,99.80
2018-10-03T21:47:25.875Z,99.70
2018-10-03T21:49:54.380Z,99.70
2018-10-03T21:52:22.796Z,99.80
2018-10-03T21:54:51.281Z,99.80
2018-10-03T21:57:19.756Z,99.80
2018-10-03T21:59:48.224Z,99.80
2018-10-03T22:02:16.674Z,99.80
2018-10-03T22:04:45.147Z,99.90
2018-10-03T22:07:13.576Z,99.90
2018-10-03T22:09:42.161Z,99.90
2018-10-03T22:12:10.773Z,99.90
2018-10-03T22:14:39.247Z,99.90
2018-10-03T22:17:12.830Z,99.90
2018-10-03T22:19:41.334Z,99.90
2018-10-03T22:22:09.820Z,99.90
2018-10-03T22:24:38.323Z,99.90
2018-10-03T22:27:07.150Z,99.90
2018-10-03T22:29:35.645Z,99.90
2018-10-03T22:32:04.126Z,99.90
2018-10-03T22:34:32.624Z,99.90
2018-10-03T22:37:01.077Z,99.90
2018-10-03T22:39:29.531Z,99.90
2018-10-03T22:41:57.974Z,99.90
2018-10-03T22:44:26.457Z,99.90
2018-10-03T22:46:54.902Z,99.90
2018-10-03T22:49:23.386Z,99.90
2018-10-03T22:51:51.822Z,99.90
2018-10-03T22:54:20.313Z,99.90
2018-10-03T22:56:48.750Z,99.90
2018-10-03T22:59:17.216Z,99.90
2018-10-03T23:01:45.658Z,99.90
2018-10-03T23:04:14.126Z,99.90
2018-10-03T23:06:42.589Z,99.90
2018-10-03T23:09:11.141Z,99.90
2018-10-03T23:11:39.587Z,99.90
2018-10-03T23:14:08.088Z,99.90
2018-10-03T23:16:36.581Z,99.90
2018-10-03T23:19:05.470Z,99.90
2018-10-03T23:21:33.914Z,99.90
2018-10-03T23:24:02.380Z,99.90
2018-10-03T23:26:30.837Z,99.90
2018-10-03T23:28:59.378Z,99.90
2018-10-03T23:31:27.822Z,99.90
2018-10-03T23:33:56.258Z,99.90
2018-10-03T23:36:24.743Z,99.90
2018-10-03T23:38:53.187Z,99.90
2018-10-03T23:41:21.651Z,99.90
2018-10-03T23:43:50.069Z,99.90
2018-10-03T23:46:18.547Z,99.90
2018-10-03T23:48:47.012Z,99.90
2018-10-03T23:51:15.439Z,99.90
2018-10-03T23:53:43.915Z,99.90
2018-10-03T23:56:12.383Z,99.90
2018-10-03T23:58:40.853Z,99.90
